MKY weather

Mackay Airport
Mackay, Queensland, Australia

Public forecast

Using degrees Celsius for public forecast. Weather courtesy of forecast.io.

METAR (pilot weather report)

Retrieved 2018/04/23 16:00 UTC (48 minutes ago):

YBMK 231600Z AUTO 22005KT 9999 // NCD 18/17 Q1013

TAF (pilot weather forecast)

Forecast is more than 12 hours old.

Closest forecast is Hamilton Island Airport, 50.5 nm (93.5 km) NNW. Retrieved 2018/04/21 12:00 UTC (2 days ago):

TAF YBHM 211103Z 2112/2124 13016KT 9999 SCT022 FM211800 13018KT 9999 -SHRA SCT018